createdAt,value
2023-01-19T00:04:07.775Z,55.23
2023-01-19T00:09:11.200Z,57.17
2023-01-19T00:14:14.200Z,61.44
2023-01-19T00:19:17.720Z,73.63
2023-01-19T00:24:21.229Z,70.18
2023-01-19T00:29:24.542Z,62.98
2023-01-19T00:34:27.849Z,60.74
2023-01-19T00:39:30.884Z,55.45
2023-01-19T00:44:34.058Z,56.24
2023-01-19T00:49:37.075Z,58.10
2023-01-19T00:54:40.172Z,68.40
2023-01-19T00:59:43.589Z,67.86
2023-01-19T01:04:46.788Z,64.33
2023-01-19T01:09:51.026Z,60.11
2023-01-19T01:14:54.335Z,53.33
2023-01-19T01:19:57.442Z,57.83
2023-01-19T01:25:00.493Z,66.54
2023-01-19T01:30:04.479Z,66.95
2023-01-19T01:35:10.207Z,61.34
2023-01-19T01:40:16.013Z,52.98
2023-01-19T01:45:38.548Z,52.71
2023-01-19T01:51:26.433Z,54.21
2023-01-19T01:56:41.807Z,58.30
2023-01-19T02:02:03.655Z,67.13
2023-01-19T02:07:26.125Z,72.39
2023-01-19T02:12:48.898Z,65.37
2023-01-19T02:17:52.116Z,59.90
2023-01-19T02:23:02.091Z,52.38
2023-01-19T02:28:05.895Z,52.94
2023-01-19T02:33:09.285Z,55.13
2023-01-19T02:38:16.470Z,56.75
2023-01-19T02:43:20.432Z,58.85
2023-01-19T02:48:23.655Z,68.74
2023-01-19T02:53:32.682Z,72.03
2023-01-19T02:59:09.401Z,65.48
2023-01-19T03:04:40.445Z,56.14
2023-01-19T03:09:57.688Z,51.35
2023-01-19T03:15:14.536Z,53.59
2023-01-19T03:20:25.585Z,55.61
2023-01-19T03:25:33.521Z,57.58
2023-01-19T03:30:46.775Z,59.05
2023-01-19T03:35:58.581Z,70.27
2023-01-19T03:41:08.391Z,71.21
2023-01-19T03:46:13.036Z,63.32
2023-01-19T03:51:17.949Z,53.91
2023-01-19T03:56:25.893Z,52.57
2023-01-19T04:01:29.090Z,55.16
2023-01-19T04:06:32.576Z,57.24
2023-01-19T04:11:35.784Z,59.08
2023-01-19T04:16:38.890Z,60.76
2023-01-19T04:21:42.049Z,70.43
2023-01-19T04:26:45.220Z,74.64
2023-01-19T04:31:48.411Z,64.66
2023-01-19T04:36:51.826Z,55.30
2023-01-19T04:41:56.475Z,54.06
2023-01-19T04:46:59.638Z,55.50
2023-01-19T04:52:02.881Z,66.95
2023-01-19T04:57:06.101Z,68.80
2023-01-19T05:02:09.118Z,63.91
2023-01-19T05:07:12.346Z,60.82
2023-01-19T05:12:16.125Z,53.25
2023-01-19T05:17:19.235Z,52.54
2023-01-19T05:22:22.545Z,53.97
2023-01-19T05:27:25.691Z,61.02
2023-01-19T05:32:28.756Z,72.71
2023-01-19T05:37:32.997Z,65.88
2023-01-19T05:42:37.288Z,60.66
2023-01-19T05:47:40.564Z,52.84
2023-01-19T05:52:43.756Z,52.26
2023-01-19T05:57:46.852Z,53.92
2023-01-19T06:02:50.369Z,56.37
2023-01-19T06:07:57.447Z,57.94
2023-01-19T06:13:00.706Z,59.78
2023-01-19T06:18:04.218Z,70.55
2023-01-19T06:23:07.297Z,73.09
2023-01-19T06:28:10.413Z,66.67
2023-01-19T06:33:13.453Z,61.83
2023-01-19T06:38:18.760Z,54.37
2023-01-19T06:43:22.858Z,52.81
2023-01-19T06:48:26.612Z,54.46
2023-01-19T06:53:30.469Z,57.13
2023-01-19T06:58:35.041Z,58.81
2023-01-19T07:03:38.845Z,60.41
2023-01-19T07:08:42.016Z,70.41
2023-01-19T07:13:51.455Z,74.82
2023-01-19T07:18:54.468Z,66.53
2023-01-19T07:23:58.220Z,60.49
2023-01-19T07:29:01.397Z,51.81
2023-01-19T07:34:04.513Z,50.90
2023-01-19T07:39:07.725Z,52.43
2023-01-19T07:44:10.747Z,54.63
2023-01-19T07:49:13.820Z,56.47
2023-01-19T07:54:17.027Z,60.37
2023-01-19T07:59:20.136Z,73.24
2023-01-19T08:04:23.269Z,72.38
2023-01-19T08:09:26.555Z,65.26
2023-01-19T08:14:29.779Z,60.38
2023-01-19T08:19:32.977Z,51.97
2023-01-19T08:24:36.190Z,51.71
2023-01-19T08:29:39.939Z,53.15
2023-01-19T08:34:43.013Z,55.55
2023-01-19T08:39:46.045Z,57.63
2023-01-19T08:44:57.566Z,59.57
2023-01-19T08:50:01.523Z,70.90
2023-01-19T08:55:06.348Z,72.32
2023-01-19T09:00:11.318Z,62.54
2023-01-19T09:05:15.264Z,54.54
2023-01-19T09:10:19.633Z,52.69
2023-01-19T09:15:22.706Z,54.12
2023-01-19T09:20:25.928Z,55.84
2023-01-19T09:25:29.120Z,57.46
2023-01-19T09:30:33.363Z,59.69
2023-01-19T09:35:38.502Z,69.35
2023-01-19T09:40:47.308Z,72.19
2023-01-19T09:46:00.913Z,64.97
2023-01-19T09:51:12.504Z,60.87
2023-01-19T09:56:19.519Z,53.01
2023-01-19T10:01:47.314Z,51.66
2023-01-19T10:06:56.814Z,53.28
2023-01-19T10:12:41.838Z,55.31
2023-01-19T10:17:50.998Z,57.04
2023-01-19T10:22:59.415Z,60.22
2023-01-19T10:28:02.959Z,70.69
2023-01-19T10:33:06.137Z,73.93
2023-01-19T10:38:15.304Z,66.72
2023-01-19T10:43:41.806Z,61.96
2023-01-19T10:48:50.588Z,53.70
2023-01-19T10:53:59.088Z,53.23
2023-01-19T10:59:05.905Z,54.69
2023-01-19T11:04:29.804Z,56.58
2023-01-19T11:09:32.927Z,58.14
2023-01-19T11:14:36.223Z,60.10
2023-01-19T11:19:39.845Z,69.69
2023-01-19T11:24:44.783Z,70.66
2023-01-19T11:30:19.020Z,65.18
2023-01-19T11:35:37.924Z,59.04
2023-01-19T11:40:42.766Z,51.48
2023-01-19T11:45:46.495Z,52.83
2023-01-19T11:50:50.708Z,54.60
2023-01-19T11:56:04.969Z,56.85
2023-01-19T12:01:34.361Z,58.39
2023-01-19T12:06:53.263Z,59.95
2023-01-19T12:12:06.563Z,69.62
2023-01-19T12:17:32.246Z,72.11
2023-01-19T12:22:50.932Z,65.56
2023-01-19T12:27:55.358Z,61.25
2023-01-19T12:33:21.519Z,53.24
2023-01-19T12:38:33.922Z,52.04
2023-01-19T12:43:37.028Z,54.35
2023-01-19T12:48:41.262Z,56.56
2023-01-19T12:53:56.832Z,58.31
2023-01-19T12:59:01.622Z,59.61
2023-01-19T13:04:34.305Z,69.57
2023-01-19T13:09:39.618Z,71.17
2023-01-19T13:14:44.431Z,64.73
2023-01-19T13:19:55.300Z,61.13
2023-01-19T13:25:14.178Z,54.02
2023-01-19T13:30:21.804Z,52.67
2023-01-19T13:35:25.208Z,54.49
2023-01-19T13:40:39.094Z,56.16
2023-01-19T13:45:50.686Z,58.15
2023-01-19T13:51:07.792Z,59.86
2023-01-19T13:56:22.109Z,69.24
2023-01-19T14:01:28.921Z,72.42
2023-01-19T14:06:40.834Z,67.57
2023-01-19T14:12:05.499Z,65.43
2023-01-19T14:17:23.754Z,60.16
2023-01-19T14:22:43.240Z,51.27
2023-01-19T14:27:46.464Z,51.27
2023-01-19T14:32:49.667Z,53.19
2023-01-19T14:37:53.066Z,55.75
2023-01-19T14:43:03.425Z,57.54
2023-01-19T14:48:19.572Z,59.43
2023-01-19T14:53:26.627Z,72.18
2023-01-19T14:58:33.695Z,71.42
2023-01-19T15:03:45.711Z,63.57
2023-01-19T15:08:50.573Z,54.23
2023-01-19T15:13:55.454Z,52.54
2023-01-19T15:18:58.586Z,54.05
2023-01-19T15:24:01.677Z,56.18
2023-01-19T15:29:25.260Z,57.98
2023-01-19T15:34:28.375Z,59.83
2023-01-19T15:39:32.532Z,72.07
2023-01-19T15:44:35.706Z,72.78
2023-01-19T15:49:39.126Z,64.26
2023-01-19T15:54:42.336Z,54.56
2023-01-19T15:59:45.444Z,53.14
